• Join FlightAware (Why Join?)
  • Login
  • US Flag 
02:51AM EST


 

Airport Tracker/Info


-or-


 

Live Flight TrackerFlight Track Log ✈ N63981 ✈ 10-Jun-2013 ✈ KUZA - KECP

Flight Track Log - Related Links

Times and Time Zones

All times are in EDT time to prevent confusion due to time zone crossing. See the N63981 flight status page for this flight to view local times or setup timezone preferences in your user account.

Time Position Orientation Groundspeed Altitude Reporting Facility
EDT Latitude Longitude Course Direction KTS MPH feet Rate Location/Type
01:40PM 34.9731 -81.0706 229° Southwest 91 105 1,100  Level Atlanta Center
01:41PM 34.9547 -81.0967 229° Southwest 96 110 1,800 480 Climbing Atlanta Center
01:42PM 34.9344 -81.1200 223° Southwest 98 113 2,200 360 Climbing Atlanta Center
01:43PM 34.9183 -81.1433 230° Southwest 93 107 2,600 420 Climbing Atlanta Center
01:44PM 34.8981 -81.1669 224° Southwest 91 105 3,100 480 Climbing Atlanta Center
01:45PM 34.8778 -81.1931 227° Southwest 93 107 3,700 480 Climbing Atlanta Center
01:46PM 34.8572 -81.2089 212° Southwest 82 94 4,200 420 Climbing Atlanta Center
01:47PM 34.8411 -81.2269 223° Southwest 80 92 4,600 60 Climbing Atlanta Center
01:49PM 34.7913 -81.2500 180° South  Level FlightAware Approximate
01:56PM 34.6066 -81.4631 222° Southwest  Level FlightAware Approximate
01:57PM 34.5794 -81.4932 222° Southwest  Level FlightAware Approximate
01:58PM 34.5522 -81.5234 222° Southwest  Level FlightAware Approximate
01:59PM 34.5249 -81.5536 222° Southwest  Level FlightAware Approximate
02:00PM 34.4977 -81.5837 222° Southwest  Level FlightAware Approximate
02:01PM 34.4705 -81.6138 222° Southwest  Level FlightAware Approximate
02:02PM 34.4432 -81.6439 222° Southwest  Level FlightAware Approximate
02:03PM 34.4160 -81.6740 222° Southwest  Level FlightAware Approximate
02:04PM 34.3887 -81.7040 222° Southwest  Level FlightAware Approximate
02:05PM 34.3615 -81.7341 222° Southwest  Level FlightAware Approximate
02:06PM 34.3342 -81.7641 222° Southwest  Level FlightAware Approximate
02:07PM 34.3055 -81.7917 212° Southwest  Level FlightAware Approximate
02:08PM 34.2741 -81.8152 212° Southwest  Level FlightAware Approximate
02:09PM 34.2437 -81.8402 222° Southwest  Level FlightAware Approximate
02:10PM 34.2164 -81.8701 222° Southwest  Level FlightAware Approximate
02:11PM 34.1891 -81.8999 222° Southwest  Level FlightAware Approximate
02:12PM 34.1617 -81.9298 222° Southwest  Level FlightAware Approximate
02:13PM 34.1344 -81.9596 222° Southwest  Level FlightAware Approximate
02:14PM 34.1070 -81.9894 222° Southwest  Level FlightAware Approximate
02:15PM 34.0796 -82.0192 222° Southwest  Level FlightAware Approximate
02:16PM 34.0513 -82.0497 222° Southwest  Level Estimated
02:17PM 34.0230 -82.0801 222° Southwest  Level Estimated
02:18PM 33.9946 -82.1105 222° Southwest  Level Estimated
02:19PM 33.9663 -82.1408 222° Southwest  Level Estimated
02:20PM 33.9379 -82.1712 222° Southwest  Level Estimated
02:21PM 33.9095 -82.2015 222° Southwest  Level Estimated
02:22PM 33.8811 -82.2318 222° Southwest  Level Estimated
02:23PM 33.8528 -82.2621 222° Southwest  Level Estimated
02:24PM 33.8244 -82.2924 222° Southwest  Level Estimated
02:25PM 33.7960 -82.3226 222° Southwest  Level Estimated
02:26PM 33.7676 -82.3529 221° Southwest  Level Estimated
02:27PM 33.7392 -82.3831 221° Southwest  Level Estimated
02:28PM 33.7107 -82.4133 221° Southwest  Level Estimated
02:29PM 33.6823 -82.4434 221° Southwest  Level Estimated
02:30PM 33.6539 -82.4736 221° Southwest  Level Estimated
02:31PM 33.6254 -82.5037 221° Southwest  Level Estimated
02:32PM 33.5970 -82.5338 221° Southwest  Level Estimated
02:33PM 33.5685 -82.5639 221° Southwest  Level Estimated
02:34PM 33.5401 -82.5940 221° Southwest  Level Estimated
02:35PM 33.5116 -82.6240 221° Southwest  Level Estimated
02:36PM 33.4831 -82.6541 221° Southwest  Level Estimated
02:37PM 33.4546 -82.6841 221° Southwest  Level Estimated
02:38PM 33.4261 -82.7141 221° Southwest  Level Estimated
02:39PM 33.3976 -82.7440 221° Southwest  Level Estimated
02:40PM 33.3691 -82.7740 221° Southwest  Level Estimated
02:41PM 33.3406 -82.8039 221° Southwest  Level Estimated
02:42PM 33.3121 -82.8338 221° Southwest  Level Estimated
02:43PM 33.2836 -82.8637 221° Southwest  Level Estimated
02:44PM 33.2550 -82.8936 221° Southwest  Level Estimated
02:45PM 33.2265 -82.9234 221° Southwest  Level Estimated
02:46PM 33.1979 -82.9533 221° Southwest  Level Estimated
02:47PM 33.1694 -82.9831 221° Southwest  Level Estimated
02:48PM 33.1408 -83.0129 221° Southwest  Level Estimated
02:49PM 33.1122 -83.0426 221° Southwest  Level Estimated
02:49PM 33.3000 -82.7667 221° Southwest 125 144 8,000  Level Atlanta TRACON
02:50PM 33.0836 -83.0724 221° Southwest  Level Estimated
02:50PM 33.2667 -82.8000 220° Southwest 127 146 8,000  Level Atlanta TRACON
02:51PM 33.0550 -83.1021 221° Southwest  Level Estimated
02:51PM 33.2500 -82.8167 220° Southwest 129 148 8,000  Level Atlanta TRACON
02:52PM 33.0265 -83.1319 221° Southwest  Level Estimated
02:52PM 33.2167 -82.8500 220° Southwest 129 148 8,000  Level Atlanta TRACON
02:53PM 32.9979 -83.1616 221° Southwest  Level Estimated
02:53PM 33.1833 -82.8833 220° Southwest 130 150 8,000  Level Atlanta TRACON
02:54PM 32.9692 -83.1912 221° Southwest  Level Estimated
02:54PM 33.1667 -82.9167 239° Southwest 130 150 8,000  Level Atlanta TRACON
02:55PM 33.1500 -82.9333 220° Southwest 128 147 8,000  Level Atlanta TRACON
02:56PM 33.1167 -82.9667 220° Southwest 129 148 8,100  Climbing Atlanta TRACON
02:57PM 33.1000 -83.0000 239° Southwest 128 147 8,000 -60 Descending Atlanta TRACON
02:58PM 33.0667 -83.0167 203° Southwest 128 147 8,000  Level Atlanta TRACON
02:59PM 33.0333 -83.0500 220° Southwest 131 151 8,000  Level Atlanta TRACON
03:00PM 33.0000 -83.0833 220° Southwest 128 147 8,100  Climbing Atlanta TRACON
03:01PM 32.9833 -83.1000 220° Southwest 128 147 8,100 -60 Level Atlanta TRACON
03:02PM 32.9333 -83.1333 209° Southwest 135 155 8,000 -60 Descending Atlanta TRACON
03:03PM 32.9167 -83.1500 220° Southwest 137 158 8,000  Level Atlanta TRACON
03:04PM 32.8667 -83.1333 164° South 145 167 8,000  Level Atlanta TRACON
03:05PM 32.8333 -83.1333 180° South 146 168 8,000  Level Atlanta TRACON
03:06PM 32.7833 -83.1333 180° South 145 167 8,100  Climbing Atlanta TRACON
03:07PM 32.7500 -83.1500 203° Southwest 136 157 8,100  Level Atlanta TRACON
03:08PM 32.7167 -83.1667 203° Southwest 133 153 8,100 -60 Level Atlanta TRACON
03:09PM 32.6833 -83.1833 203° Southwest 133 153 8,000 -60 Descending Atlanta TRACON
03:10PM 32.6667 -83.2000 220° Southwest 133 153 8,000  Level Atlanta TRACON
03:11PM 32.6333 -83.2167 203° Southwest 129 148 8,100  Climbing Atlanta TRACON
03:12PM 32.6000 -83.2333 203° Southwest 127 146 8,000  Descending Atlanta TRACON
03:13PM 32.5667 -83.2500 203° Southwest 130 150 8,100  Climbing Atlanta TRACON
03:14PM 32.5333 -83.2667 203° Southwest 130 150 8,000 -60 Descending Atlanta TRACON
03:15PM 32.5000 -83.2833 203° Southwest 132 152 8,000  Level Atlanta TRACON
03:16PM 32.4667 -83.3167 220° Southwest 133 153 8,000  Level Atlanta TRACON
03:17PM 32.4333 -83.3167 180° South 133 153 8,100  Climbing Atlanta TRACON
03:18PM 32.4000 -83.3500 220° Southwest 133 153 8,000 -60 Descending Atlanta TRACON
03:19PM 32.3667 -83.3667 203° Southwest 135 155 8,000  Level Atlanta TRACON
03:20PM 32.3333 -83.3833 203° Southwest 134 154 8,000  Level Atlanta TRACON
03:21PM 32.3000 -83.4000 203° Southwest 132 152 8,000  Level Atlanta TRACON
03:22PM 32.2667 -83.4167 203° Southwest 134 154 8,100  Climbing Atlanta TRACON
03:23PM 32.2333 -83.4333 203° Southwest 135 155 8,100 -60 Level Atlanta TRACON
03:24PM 32.1842 -83.4497 196° South 137 158 8,000  Descending Jacksonville Center
03:25PM 32.1714 -83.4867 248° West 124 143 8,100  Climbing Jacksonville Center
03:26PM 32.1525 -83.5208 237° Southwest 120 138 8,100 -60 Level Jacksonville Center
03:27PM 32.1189 -83.5425 209° Southwest 125 144 8,000 -60 Descending Jacksonville Center
03:28PM 32.0814 -83.5544 195° South 131 151 8,000  Level Jacksonville Center
03:29PM 32.0603 -83.5889 234° Southwest 136 157 8,000  Level Jacksonville Center
03:30PM 32.0411 -83.6231 237° Southwest 136 157 8,000  Level Jacksonville Center
03:31PM 32.0222 -83.6594 239° Southwest 136 157 8,000  Level Jacksonville Center
03:32PM 32.0011 -83.6936 234° Southwest 136 157 8,000  Level Jacksonville Center
03:33PM 31.9781 -83.7253 229° Southwest 136 157 8,000  Level Jacksonville Center
03:34PM 31.9547 -83.7569 229° Southwest 131 151 8,000  Level Jacksonville Center
03:35PM 31.9317 -83.7886 229° Southwest 131 151 8,000  Level Jacksonville Center
03:36PM 31.9083 -83.8200 229° Southwest 131 151 8,000  Level Jacksonville Center
03:37PM 31.8894 -83.8542 237° Southwest 131 151 8,000  Level Jacksonville Center
03:38PM 31.8661 -83.8858 229° Southwest 131 151 8,000  Level Jacksonville Center
03:39PM 31.8431 -83.9147 227° Southwest 131 151 8,000  Level Jacksonville Center
03:40PM 31.8219 -83.9464 232° Southwest 131 151 8,000  Level Jacksonville Center
03:41PM 31.7986 -83.9778 229° Southwest 131 151 8,000  Level Jacksonville Center
03:42PM 31.7775 -84.0119 234° Southwest 131 151 8,100  Climbing Jacksonville Center
03:43PM 31.7542 -84.0458 231° Southwest 131 151 8,100 -60 Level Jacksonville Center
03:44PM 31.7372 -84.0822 241° Southwest 136 157 8,000 -60 Descending Jacksonville Center
03:45PM 31.7450 -84.1214 283° West 122 140 8,000  Level Jacksonville Center
03:46PM 31.7550 -84.1631 286° West 127 146 8,000  Level Jacksonville Center
03:47PM 31.7631 -84.2097 281° West 133 153 8,000  Level Jacksonville Center
03:48PM 31.7689 -84.2489 280° West 133 153 8,000  Level Jacksonville Center
03:49PM 31.7789 -84.2906 286° West 133 153 8,000  Level Jacksonville Center
03:50PM 31.7889 -84.3322 286° West 133 153 8,000  Level Jacksonville Center
03:51PM 31.7967 -84.3764 282° West 133 153 8,000  Level Jacksonville Center
03:52PM 31.8044 -84.4156 283° West 133 153 8,000  Level Jacksonville Center
03:53PM 31.8103 -84.4597 279° West 138 159 8,000  Level Jacksonville Center
03:54PM 31.8181 -84.5039 282° West 138 159 8,000  Level Jacksonville Center
03:55PM 31.8239 -84.5456 279° West 138 159 8,000  Level Jacksonville Center
03:56PM 31.8233 -84.5869 269° West 133 153 8,000  Level Jacksonville Center
03:57PM 31.8186 -84.6286 262° West 133 153 8,000  Level Jacksonville Center
03:58PM 31.8097 -84.6700 256° West 133 153 8,000  Level Jacksonville Center
03:59PM 31.8050 -84.6894 254° West 127 146 8,000  Level Jacksonville Center
03:59PM 31.7944 -84.7064 234° Southwest 133 153 8,000  Level Jacksonville Center
04:00PM 31.7858 -84.7281 245° Southwest 131 151 8,000  Level Jacksonville Center
04:00PM 31.7731 -84.7400 218° Southwest 133 153 8,000 60 Level Jacksonville Center
04:01PM 31.7603 -84.7544 224° Southwest 140 161 8,100  Climbing Jacksonville Center
04:01PM 31.7433 -84.7711 220° Southwest 133 153 8,000 -120 Descending Jacksonville Center
04:02PM 31.7286 -84.7906 228° Southwest 142 163 8,000  Level Jacksonville Center
04:02PM 31.7094 -84.7997 202° Southwest 144 166 8,000  Level Jacksonville Center
04:03PM 31.6928 -84.8142 216° Southwest 149 171 8,000  Level Jacksonville Center
04:03PM 31.6758 -84.8261 211° Southwest 151 174 8,000  Level Jacksonville Center
04:04PM 31.6589 -84.8403 215° Southwest 149 171 8,000 60 Level Jacksonville Center
04:04PM 31.6419 -84.8522 211° Southwest 151 174 8,100  Climbing Jacksonville Center
04:05PM 31.6272 -84.8639 214° Southwest 143 165 8,000  Descending Jacksonville Center
04:05PM 31.6081 -84.8783 213° Southwest 151 174 8,100  Climbing Jacksonville Center
04:06PM 31.5953 -84.8928 224° Southwest 143 165 8,000  Descending Jacksonville Center
04:06PM 31.5744 -84.9019 201° Southwest 151 174 8,100  Climbing Jacksonville Center
04:07PM 31.5594 -84.9186 223° Southwest 145 167 8,000  Descending Jacksonville Center
04:07PM 31.5364 -84.9278 199° South 151 174 8,100  Climbing Jacksonville Center
04:08PM 31.5236 -84.9422 224° Southwest 149 171 8,000  Descending Jacksonville Center
04:08PM 31.5067 -84.9542 211° Southwest 151 174 8,100  Climbing Jacksonville Center
04:09PM 31.4897 -84.9708 220° Southwest 148 170 8,000 -120 Descending Jacksonville Center
04:10PM 31.4539 -84.9967 212° Southwest 149 171 8,000  Level Jacksonville Center
04:11PM 31.4200 -85.0253 216° Southwest 144 166 8,000  Level Jacksonville Center
04:12PM 31.3861 -85.0511 213° Southwest 140 161 8,000  Level Jacksonville Center
04:13PM 31.3500 -85.0794 214° Southwest 139 160 8,000  Level Jacksonville Center
04:14PM 31.3183 -85.1031 212° Southwest 140 161 8,000  Level Jacksonville Center
04:15PM 31.2844 -85.1292 213° Southwest 141 162 8,000  Level Jacksonville Center
04:16PM 31.2464 -85.1572 212° Southwest 141 162 8,000  Level Jacksonville Center
04:17PM 31.2169 -85.1808 214° Southwest 147 169 8,000  Level Jacksonville Center
04:18PM 31.1850 -85.2069 215° Southwest 147 169 8,000  Level Jacksonville Center
04:19PM 31.1469 -85.2325 210° Southwest 146 168 8,000  Level Jacksonville Center
04:20PM 31.1131 -85.2583 213° Southwest 146 168 8,000  Level Jacksonville Center
04:22PM 31.0701 -85.2899 212° Southwest  Level FlightAware Approximate
04:29PM 30.8626 -85.4421 212° Southwest  Level FlightAware Approximate
04:30PM 30.8329 -85.4638 212° Southwest  Level FlightAware Approximate
04:31PM 30.8033 -85.4854 212° Southwest  Level FlightAware Approximate
04:32PM 30.7726 -85.5054 203° Southwest  Level FlightAware Approximate
04:33PM 30.7404 -85.5215 203° Southwest  Level FlightAware Approximate
04:34PM 30.7092 -85.5396 216° Southwest  Level FlightAware Approximate
04:35PM 30.6808 -85.5633 216° Southwest  Level FlightAware Approximate
04:36PM 30.6523 -85.5870 216° Southwest  Level FlightAware Approximate
04:37PM 30.6238 -85.6107 216° Southwest  Level FlightAware Approximate
04:38PM 30.5940 -85.6318 210° Southwest  Level FlightAware Approximate
04:39PM 30.5636 -85.6521 210° Southwest  Level FlightAware Approximate
04:40PM 30.5332 -85.6724 210° Southwest  Level FlightAware Approximate
04:41PM 30.5029 -85.6926 210° Southwest  Level FlightAware Approximate
04:42PM 30.4725 -85.7128 210° Southwest  Level FlightAware Approximate
04:43PM 30.4421 -85.7330 210° Southwest  Level FlightAware Approximate
04:44PM 30.4115 -85.7526 203° Southwest  Level FlightAware Approximate
04:45PM 30.3793 -85.7687 203° Southwest  Level FlightAware Approximate
04:46PM 30.3500 -85.7833 203° Southwest  Level FlightAware Approximate
04:47PM 30.3582 -85.7956 203° Southwest  Level Estimated
04:48PM 30.3582 -85.7956 203° Southwest  Level Estimated
04:49PM 30.3582 -85.7956 203° Southwest  Level Estimated